SVA201 OEMA-OEJN
Flight info
| Callsign | SVA201 |
|---|---|
| Flight time | 0h 54m |
| Altitude | 28000 |
| Route | SISUD B544 NOMDA |
| Aircraft | A320/M-SDE3FGHIRWY/LB1 |
Departure
| Time | 2026-04-25 13:21 |
|---|---|
| Airport | Prince Mohammad Bin Abdulaziz Airport (OEMA) |
Arrival
| Time | 2026-04-25 14:15 |
|---|---|
| Airport | King Abdulaziz International Airport (OEJN) |
| Time | Latitude | Longitude | Altitude | Speed | Heading |
|---|---|---|---|---|---|
| 2026-04-25 12:58 | 24.54648 | 39.69949 | 2105 ft | 0 kts | 240° |
| 2026-04-25 13:02 | 24.54648 | 39.69950 | 2105 ft | 0 kts | 240° |
| 2026-04-25 13:07 | 24.54649 | 39.69952 | 2105 ft | 2 kts | 240° |
| 2026-04-25 13:07 | 24.54662 | 39.69977 | 2105 ft | 4 kts | 242° |
| 2026-04-25 13:08 | 24.54674 | 39.70004 | 2107 ft | 4 kts | 246° |
| 2026-04-25 13:08 | 24.54684 | 39.70031 | 2106 ft | 4 kts | 253° |
| 2026-04-25 13:08 | 24.54688 | 39.70059 | 2105 ft | 4 kts | 286° |
| 2026-04-25 13:08 | 24.54681 | 39.70073 | 2106 ft | 1 kts | 331° |
| 2026-04-25 13:09 | 24.54679 | 39.70074 | 2107 ft | 3 kts | 331° |
| 2026-04-25 13:09 | 24.54679 | 39.70075 | 2107 ft | 0 kts | 331° |
| 2026-04-25 13:10 | 24.54678 | 39.70075 | 2107 ft | 0 kts | 331° |
| 2026-04-25 13:11 | 24.54688 | 39.70074 | 2106 ft | 3 kts | 8° |
| 2026-04-25 13:11 | 24.54718 | 39.70111 | 2106 ft | 12 kts | 49° |
| 2026-04-25 13:11 | 24.54746 | 39.70132 | 2107 ft | 0 kts | 33° |
| 2026-04-25 13:12 | 24.54756 | 39.70136 | 2106 ft | 4 kts | 15° |
| 2026-04-25 13:12 | 24.54800 | 39.70119 | 2106 ft | 10 kts | 331° |
| 2026-04-25 13:12 | 24.54861 | 39.70133 | 2107 ft | 9 kts | 49° |
| 2026-04-25 13:12 | 24.54894 | 39.70173 | 2107 ft | 12 kts | 37° |
| 2026-04-25 13:13 | 24.55027 | 39.70192 | 2108 ft | 15 kts | 5° |
| 2026-04-25 13:13 | 24.55127 | 39.70201 | 2108 ft | 14 kts | 4° |
| 2026-04-25 13:13 | 24.55219 | 39.70207 | 2108 ft | 13 kts | 3° |
| 2026-04-25 13:13 | 24.55332 | 39.70214 | 2108 ft | 19 kts | 4° |
| 2026-04-25 13:14 | 24.55475 | 39.70225 | 2108 ft | 22 kts | 4° |
| 2026-04-25 13:14 | 24.55623 | 39.70237 | 2108 ft | 23 kts | 2° |
| 2026-04-25 13:14 | 24.55789 | 39.70249 | 2108 ft | 25 kts | 4° |
| 2026-04-25 13:14 | 24.55966 | 39.70261 | 2108 ft | 26 kts | 4° |
| 2026-04-25 13:15 | 24.56154 | 39.70274 | 2108 ft | 22 kts | 4° |
| 2026-04-25 13:15 | 24.56317 | 39.70286 | 2109 ft | 25 kts | 0° |
| 2026-04-25 13:15 | 24.56483 | 39.70259 | 2108 ft | 22 kts | 349° |
| 2026-04-25 13:15 | 24.56642 | 39.70225 | 2106 ft | 25 kts | 349° |
| 2026-04-25 13:16 | 24.56806 | 39.70190 | 2105 ft | 24 kts | 349° |
| 2026-04-25 13:16 | 24.56980 | 39.70153 | 2106 ft | 27 kts | 349° |
| 2026-04-25 13:16 | 24.57159 | 39.70114 | 2105 ft | 27 kts | 349° |
| 2026-04-25 13:16 | 24.57329 | 39.70079 | 2105 ft | 24 kts | 349° |
| 2026-04-25 13:17 | 24.57484 | 39.70045 | 2105 ft | 17 kts | 349° |
| 2026-04-25 13:17 | 24.57582 | 39.70079 | 2106 ft | 15 kts | 68° |
| 2026-04-25 13:17 | 24.57598 | 39.70157 | 2107 ft | 7 kts | 80° |
| 2026-04-25 13:17 | 24.57606 | 39.70208 | 2108 ft | 6 kts | 80° |
| 2026-04-25 13:18 | 24.57612 | 39.70245 | 2110 ft | 5 kts | 80° |
| 2026-04-25 13:18 | 24.57614 | 39.70258 | 2110 ft | 0 kts | 79° |
| 2026-04-25 13:19 | 24.57614 | 39.70260 | 2111 ft | 0 kts | 79° |
| 2026-04-25 13:19 | 24.57615 | 39.70264 | 2111 ft | 1 kts | 79° |
| 2026-04-25 13:19 | 24.57615 | 39.70266 | 2111 ft | 1 kts | 79° |
| 2026-04-25 13:20 | 24.57595 | 39.70339 | 2111 ft | 10 kts | 156° |
| 2026-04-25 13:20 | 24.57526 | 39.70357 | 2111 ft | 13 kts | 169° |
| 2026-04-25 13:20 | 24.57215 | 39.70423 | 2111 ft | 87 kts | 169° |
| 2026-04-25 13:20 | 24.56371 | 39.70598 | 2115 ft | 156 kts | 169° |
| 2026-04-25 13:21 | 24.55185 | 39.70852 | 2557 ft | 174 kts | 175° |
| 2026-04-25 13:21 | 24.54004 | 39.71120 | 3477 ft | 171 kts | 174° |
| 2026-04-25 13:21 | 24.53204 | 39.71289 | 3902 ft | 178 kts | 173° |
| 2026-04-25 13:21 | 24.51456 | 39.71643 | 4403 ft | 208 kts | 174° |
| 2026-04-25 13:22 | 24.49956 | 39.71944 | 4761 ft | 231 kts | 174° |
| 2026-04-25 13:22 | 24.48287 | 39.72281 | 5168 ft | 256 kts | 174° |
| 2026-04-25 13:22 | 24.47097 | 39.72527 | 5606 ft | 267 kts | 173° |
| 2026-04-25 13:23 | 24.43376 | 39.73324 | 7489 ft | 274 kts | 172° |
| 2026-04-25 13:23 | 24.41494 | 39.73729 | 8468 ft | 277 kts | 172° |
| 2026-04-25 13:23 | 24.39596 | 39.74132 | 9472 ft | 278 kts | 173° |
| 2026-04-25 13:23 | 24.37680 | 39.74537 | 10322 ft | 286 kts | 173° |
| 2026-04-25 13:24 | 24.35632 | 39.74826 | 10666 ft | 308 kts | 182° |
| 2026-04-25 13:24 | 24.33433 | 39.74640 | 10965 ft | 326 kts | 194° |
| 2026-04-25 13:24 | 24.31245 | 39.73886 | 11613 ft | 332 kts | 205° |
| 2026-04-25 13:24 | 24.29169 | 39.72748 | 12407 ft | 335 kts | 208° |
| 2026-04-25 13:25 | 24.27081 | 39.71587 | 13257 ft | 338 kts | 208° |
| 2026-04-25 13:25 | 24.24967 | 39.70411 | 14027 ft | 342 kts | 208° |
| 2026-04-25 13:25 | 24.22837 | 39.69222 | 14764 ft | 345 kts | 209° |
| 2026-04-25 13:25 | 24.20687 | 39.68022 | 15499 ft | 349 kts | 209° |
| 2026-04-25 13:26 | 24.18518 | 39.66811 | 16225 ft | 352 kts | 209° |
| 2026-04-25 13:26 | 24.16325 | 39.65587 | 16968 ft | 355 kts | 209° |
| 2026-04-25 13:26 | 24.14113 | 39.64356 | 17710 ft | 359 kts | 209° |
| 2026-04-25 13:26 | 24.11877 | 39.63112 | 18408 ft | 362 kts | 209° |
| 2026-04-25 13:27 | 24.09618 | 39.61855 | 19027 ft | 367 kts | 209° |
| 2026-04-25 13:27 | 24.07330 | 39.60582 | 19643 ft | 371 kts | 210° |
| 2026-04-25 13:27 | 24.05022 | 39.59298 | 20268 ft | 375 kts | 210° |
| 2026-04-25 13:27 | 24.02680 | 39.57996 | 20865 ft | 379 kts | 210° |
| 2026-04-25 13:28 | 24.00317 | 39.56683 | 21440 ft | 384 kts | 210° |
| 2026-04-25 13:28 | 23.98735 | 39.55803 | 21827 ft | 387 kts | 210° |
| 2026-04-25 13:28 | 23.95503 | 39.54009 | 22558 ft | 392 kts | 210° |
| 2026-04-25 13:28 | 23.93060 | 39.52654 | 23079 ft | 396 kts | 210° |
| 2026-04-25 13:29 | 23.90595 | 39.51282 | 23564 ft | 400 kts | 210° |
| 2026-04-25 13:29 | 23.88097 | 39.49893 | 23998 ft | 403 kts | 211° |
| 2026-04-25 13:29 | 23.85587 | 39.48499 | 24436 ft | 406 kts | 211° |
| 2026-04-25 13:30 | 23.80523 | 39.45696 | 25264 ft | 410 kts | 211° |
| 2026-04-25 13:30 | 23.77970 | 39.44287 | 25672 ft | 412 kts | 212° |
| 2026-04-25 13:30 | 23.75386 | 39.42896 | 26071 ft | 417 kts | 209° |
| 2026-04-25 13:31 | 23.69809 | 39.40869 | 26807 ft | 426 kts | 204° |
| 2026-04-25 13:31 | 23.66964 | 39.39891 | 27174 ft | 429 kts | 204° |
| 2026-04-25 13:31 | 23.64147 | 39.38921 | 27508 ft | 432 kts | 205° |
| 2026-04-25 13:31 | 23.61236 | 39.37914 | 27821 ft | 434 kts | 205° |
| 2026-04-25 13:32 | 23.58349 | 39.36919 | 27902 ft | 436 kts | 205° |
| 2026-04-25 13:32 | 23.55488 | 39.35934 | 27906 ft | 437 kts | 205° |
| 2026-04-25 13:32 | 23.52586 | 39.34934 | 27904 ft | 438 kts | 205° |
| 2026-04-25 13:32 | 23.49683 | 39.33932 | 27894 ft | 437 kts | 205° |
| 2026-04-25 13:33 | 23.46783 | 39.32930 | 27898 ft | 437 kts | 205° |
| 2026-04-25 13:33 | 23.43885 | 39.31927 | 27889 ft | 437 kts | 205° |
| 2026-04-25 13:33 | 23.40982 | 39.30925 | 27896 ft | 438 kts | 205° |
| 2026-04-25 13:33 | 23.39019 | 39.30251 | 27887 ft | 437 kts | 205° |
| 2026-04-25 13:34 | 23.35173 | 39.28931 | 27878 ft | 438 kts | 205° |
| 2026-04-25 13:34 | 23.32266 | 39.27932 | 27875 ft | 438 kts | 205° |
| 2026-04-25 13:34 | 23.29364 | 39.26932 | 27868 ft | 438 kts | 205° |
| 2026-04-25 13:34 | 23.26454 | 39.25927 | 27863 ft | 438 kts | 205° |
| 2026-04-25 13:35 | 23.23547 | 39.24925 | 27862 ft | 438 kts | 205° |
| 2026-04-25 13:35 | 23.20651 | 39.23925 | 27859 ft | 438 kts | 205° |
| 2026-04-25 13:35 | 23.17744 | 39.22921 | 27852 ft | 438 kts | 205° |
| 2026-04-25 13:35 | 23.14838 | 39.21921 | 27849 ft | 437 kts | 205° |
| 2026-04-25 13:36 | 23.11940 | 39.20928 | 27854 ft | 437 kts | 205° |
| 2026-04-25 13:36 | 23.09060 | 39.19943 | 27843 ft | 437 kts | 205° |
| 2026-04-25 13:36 | 23.06128 | 39.18940 | 27832 ft | 437 kts | 205° |
| 2026-04-25 13:36 | 23.03232 | 39.17947 | 27833 ft | 437 kts | 205° |
| 2026-04-25 13:37 | 23.00325 | 39.16951 | 27832 ft | 437 kts | 205° |
| 2026-04-25 13:37 | 22.97425 | 39.15957 | 27828 ft | 438 kts | 205° |
| 2026-04-25 13:37 | 22.94520 | 39.14961 | 27824 ft | 438 kts | 205° |
| 2026-04-25 13:37 | 22.91612 | 39.13965 | 27822 ft | 438 kts | 205° |
| 2026-04-25 13:38 | 22.88708 | 39.12972 | 27823 ft | 438 kts | 205° |
| 2026-04-25 13:38 | 22.85797 | 39.11980 | 27824 ft | 438 kts | 205° |
| 2026-04-25 13:38 | 22.82889 | 39.10985 | 27823 ft | 439 kts | 205° |
| 2026-04-25 13:38 | 22.79928 | 39.10109 | 27821 ft | 445 kts | 198° |
| 2026-04-25 13:39 | 22.76790 | 39.09921 | 27830 ft | 462 kts | 182° |
| 2026-04-25 13:39 | 22.73613 | 39.10725 | 27830 ft | 479 kts | 166° |
| 2026-04-25 13:39 | 22.70643 | 39.12470 | 27829 ft | 491 kts | 153° |
| 2026-04-25 13:39 | 22.67821 | 39.14559 | 27828 ft | 492 kts | 152° |
| 2026-04-25 13:40 | 22.65003 | 39.16658 | 27829 ft | 491 kts | 153° |
| 2026-04-25 13:40 | 22.62138 | 39.18679 | 27824 ft | 491 kts | 154° |
| 2026-04-25 13:40 | 22.59274 | 39.20680 | 27821 ft | 491 kts | 154° |
| 2026-04-25 13:40 | 22.56403 | 39.22684 | 27819 ft | 491 kts | 154° |
| 2026-04-25 13:41 | 22.53535 | 39.24683 | 27822 ft | 491 kts | 154° |
| 2026-04-25 13:41 | 22.50663 | 39.26682 | 27822 ft | 491 kts | 154° |
| 2026-04-25 13:41 | 22.47784 | 39.28683 | 27682 ft | 493 kts | 154° |
| 2026-04-25 13:41 | 22.44893 | 39.30684 | 27335 ft | 493 kts | 154° |
| 2026-04-25 13:42 | 22.42006 | 39.32673 | 26940 ft | 492 kts | 154° |
| 2026-04-25 13:42 | 22.39115 | 39.34656 | 26554 ft | 491 kts | 154° |
| 2026-04-25 13:42 | 22.36225 | 39.36607 | 26171 ft | 488 kts | 155° |
| 2026-04-25 13:42 | 22.33287 | 39.38415 | 25769 ft | 486 kts | 156° |
| 2026-04-25 13:43 | 22.30346 | 39.40190 | 25349 ft | 484 kts | 157° |
| 2026-04-25 13:43 | 22.27395 | 39.41959 | 24942 ft | 483 kts | 157° |
| 2026-04-25 13:43 | 22.24471 | 39.43702 | 24538 ft | 480 kts | 157° |
| 2026-04-25 13:43 | 22.21571 | 39.45423 | 24138 ft | 475 kts | 156° |
| 2026-04-25 13:44 | 22.18665 | 39.47143 | 23721 ft | 471 kts | 156° |
| 2026-04-25 13:44 | 22.15804 | 39.48829 | 23287 ft | 466 kts | 156° |
| 2026-04-25 13:44 | 22.13012 | 39.50467 | 22790 ft | 461 kts | 156° |
| 2026-04-25 13:44 | 22.10203 | 39.52111 | 22300 ft | 457 kts | 156° |
| 2026-04-25 13:45 | 22.07382 | 39.53631 | 21811 ft | 451 kts | 160° |
| 2026-04-25 13:45 | 22.04540 | 39.55024 | 21241 ft | 446 kts | 161° |
| 2026-04-25 13:45 | 22.01727 | 39.56387 | 20678 ft | 442 kts | 161° |
| 2026-04-25 13:45 | 21.98932 | 39.57732 | 20126 ft | 438 kts | 161° |
| 2026-04-25 13:46 | 21.96163 | 39.59054 | 19541 ft | 433 kts | 161° |
| 2026-04-25 13:46 | 21.93426 | 39.60354 | 18870 ft | 428 kts | 161° |
| 2026-04-25 13:46 | 21.90705 | 39.61633 | 18215 ft | 423 kts | 161° |
| 2026-04-25 13:46 | 21.88015 | 39.62886 | 17482 ft | 419 kts | 161° |
| 2026-04-25 13:47 | 21.85351 | 39.64115 | 16744 ft | 414 kts | 161° |
| 2026-04-25 13:47 | 21.82711 | 39.65321 | 16032 ft | 411 kts | 161° |
| 2026-04-25 13:47 | 21.80090 | 39.66510 | 15333 ft | 404 kts | 161° |
| 2026-04-25 13:47 | 21.77537 | 39.67663 | 14648 ft | 388 kts | 160° |
| 2026-04-25 13:48 | 21.75113 | 39.68754 | 13984 ft | 369 kts | 161° |
| 2026-04-25 13:48 | 21.72799 | 39.69789 | 13286 ft | 353 kts | 161° |
| 2026-04-25 13:48 | 21.70574 | 39.70781 | 12569 ft | 340 kts | 161° |
| 2026-04-25 13:48 | 21.68415 | 39.71739 | 11852 ft | 332 kts | 161° |
| 2026-04-25 13:49 | 21.66300 | 39.72669 | 11165 ft | 324 kts | 160° |
| 2026-04-25 13:49 | 21.64251 | 39.73561 | 10491 ft | 313 kts | 161° |
| 2026-04-25 13:49 | 21.62255 | 39.74416 | 9829 ft | 304 kts | 162° |
| 2026-04-25 13:49 | 21.60248 | 39.74970 | 9108 ft | 293 kts | 171° |
| 2026-04-25 13:50 | 21.58266 | 39.75361 | 8402 ft | 286 kts | 172° |
| 2026-04-25 13:50 | 21.56324 | 39.75727 | 7696 ft | 280 kts | 171° |
| 2026-04-25 13:50 | 21.54422 | 39.76067 | 7023 ft | 275 kts | 171° |
| 2026-04-25 13:50 | 21.52549 | 39.76385 | 6363 ft | 270 kts | 172° |
| 2026-04-25 13:51 | 21.50702 | 39.76699 | 5662 ft | 267 kts | 172° |
| 2026-04-25 13:51 | 21.48882 | 39.77021 | 4968 ft | 264 kts | 172° |
| 2026-04-25 13:51 | 21.47084 | 39.77353 | 4267 ft | 261 kts | 172° |
| 2026-04-25 13:51 | 21.45306 | 39.77700 | 3620 ft | 257 kts | 172° |
| 2026-04-25 13:52 | 21.43612 | 39.78055 | 3288 ft | 240 kts | 172° |
| 2026-04-25 13:52 | 21.42034 | 39.78402 | 3099 ft | 228 kts | 171° |
| 2026-04-25 13:52 | 21.40612 | 39.78990 | 3092 ft | 215 kts | 145° |
| 2026-04-25 13:52 | 21.39602 | 39.80105 | 3097 ft | 205 kts | 127° |
| 2026-04-25 13:53 | 21.39223 | 39.81561 | 3106 ft | 209 kts | 88° |
| 2026-04-25 13:53 | 21.39740 | 39.83016 | 3154 ft | 216 kts | 53° |
| 2026-04-25 13:53 | 21.40885 | 39.84004 | 3110 ft | 210 kts | 19° |
| 2026-04-25 13:53 | 21.42292 | 39.84106 | 3105 ft | 203 kts | 338° |
| 2026-04-25 13:54 | 21.43409 | 39.83311 | 3107 ft | 190 kts | 300° |
| 2026-04-25 13:54 | 21.43766 | 39.82026 | 3099 ft | 179 kts | 262° |
| 2026-04-25 13:54 | 21.43239 | 39.80854 | 3102 ft | 177 kts | 221° |
| 2026-04-25 13:54 | 21.42113 | 39.80379 | 3105 ft | 180 kts | 183° |
| 2026-04-25 13:55 | 21.40941 | 39.80856 | 3109 ft | 190 kts | 144° |
| 2026-04-25 13:55 | 21.40287 | 39.82108 | 3111 ft | 203 kts | 105° |
| 2026-04-25 13:55 | 21.40349 | 39.83643 | 3109 ft | 207 kts | 85° |
| 2026-04-25 13:55 | 21.40858 | 39.85065 | 3117 ft | 211 kts | 52° |
| 2026-04-25 13:56 | 21.42064 | 39.85942 | 3118 ft | 213 kts | 12° |
| 2026-04-25 13:56 | 21.43501 | 39.85901 | 3120 ft | 206 kts | 335° |
| 2026-04-25 13:56 | 21.44571 | 39.84994 | 3109 ft | 194 kts | 295° |
| 2026-04-25 13:56 | 21.44848 | 39.83655 | 3109 ft | 180 kts | 257° |
| 2026-04-25 13:57 | 21.44262 | 39.82544 | 3105 ft | 173 kts | 217° |
| 2026-04-25 13:57 | 21.43918 | 39.82312 | 3108 ft | 172 kts | 208° |
| 2026-04-25 13:57 | 21.42077 | 39.81542 | 3107 ft | 170 kts | 199° |
| 2026-04-25 13:57 | 21.40907 | 39.81538 | 3110 ft | 175 kts | 163° |
| 2026-04-25 13:58 | 21.40002 | 39.82431 | 3110 ft | 187 kts | 121° |
| 2026-04-25 13:58 | 21.39843 | 39.83832 | 3118 ft | 197 kts | 79° |
| 2026-04-25 13:58 | 21.40548 | 39.85060 | 3110 ft | 199 kts | 36° |
| 2026-04-25 13:58 | 21.41829 | 39.85566 | 3112 ft | 196 kts | 354° |
| 2026-04-25 13:59 | 21.43062 | 39.85128 | 3106 ft | 183 kts | 313° |
| 2026-04-25 13:59 | 21.43673 | 39.84022 | 3110 ft | 169 kts | 272° |
| 2026-04-25 13:59 | 21.43536 | 39.82806 | 3101 ft | 165 kts | 251° |
| 2026-04-25 13:59 | 21.43187 | 39.81627 | 3099 ft | 168 kts | 247° |
| 2026-04-25 14:00 | 21.42926 | 39.80840 | 3103 ft | 170 kts | 244° |
| 2026-04-25 14:00 | 21.41812 | 39.79793 | 3108 ft | 166 kts | 192° |
| 2026-04-25 14:00 | 21.40679 | 39.80052 | 3098 ft | 177 kts | 150° |
| 2026-04-25 14:00 | 21.39953 | 39.81152 | 3105 ft | 191 kts | 109° |
| 2026-04-25 14:01 | 21.40053 | 39.82596 | 3103 ft | 202 kts | 67° |
| 2026-04-25 14:01 | 21.40970 | 39.83695 | 3101 ft | 199 kts | 26° |
| 2026-04-25 14:01 | 21.42293 | 39.83944 | 3111 ft | 195 kts | 343° |
| 2026-04-25 14:01 | 21.43412 | 39.83281 | 3108 ft | 181 kts | 303° |
| 2026-04-25 14:02 | 21.44117 | 39.82180 | 3105 ft | 178 kts | 292° |
| 2026-04-25 14:02 | 21.44722 | 39.81027 | 3100 ft | 177 kts | 293° |
| 2026-04-25 14:02 | 21.45203 | 39.79819 | 3104 ft | 178 kts | 276° |
| 2026-04-25 14:02 | 21.45249 | 39.79356 | 3112 ft | 191 kts | 268° |
| 2026-04-25 14:03 | 21.45294 | 39.76581 | 3087 ft | 249 kts | 267° |
| 2026-04-25 14:03 | 21.45321 | 39.74676 | 3423 ft | 262 kts | 268° |
| 2026-04-25 14:03 | 21.45356 | 39.72701 | 4461 ft | 267 kts | 266° |
| 2026-04-25 14:03 | 21.45392 | 39.70672 | 5421 ft | 276 kts | 267° |
| 2026-04-25 14:04 | 21.45430 | 39.68595 | 6379 ft | 281 kts | 267° |
| 2026-04-25 14:04 | 21.45470 | 39.66479 | 7301 ft | 286 kts | 267° |
| 2026-04-25 14:04 | 21.45508 | 39.64323 | 7805 ft | 289 kts | 267° |
| 2026-04-25 14:04 | 21.45548 | 39.62169 | 8006 ft | 288 kts | 267° |
| 2026-04-25 14:05 | 21.45584 | 39.60025 | 8063 ft | 287 kts | 267° |
| 2026-04-25 14:05 | 21.45618 | 39.57883 | 8068 ft | 287 kts | 267° |
| 2026-04-25 14:05 | 21.45647 | 39.55985 | 8065 ft | 287 kts | 267° |
| 2026-04-25 14:05 | 21.45676 | 39.53848 | 8064 ft | 286 kts | 266° |
| 2026-04-25 14:06 | 21.45705 | 39.51713 | 8061 ft | 286 kts | 267° |
| 2026-04-25 14:06 | 21.45724 | 39.50295 | 8056 ft | 287 kts | 267° |
| 2026-04-25 14:06 | 21.45762 | 39.47434 | 8053 ft | 286 kts | 267° |
| 2026-04-25 14:06 | 21.45793 | 39.45296 | 8048 ft | 287 kts | 267° |
| 2026-04-25 14:07 | 21.45824 | 39.43158 | 7958 ft | 288 kts | 267° |
| 2026-04-25 14:07 | 21.45844 | 39.41725 | 7524 ft | 292 kts | 267° |
| 2026-04-25 14:07 | 21.45877 | 39.39560 | 7137 ft | 288 kts | 267° |
| 2026-04-25 14:07 | 21.45912 | 39.37429 | 6570 ft | 283 kts | 267° |
| 2026-04-25 14:08 | 21.45945 | 39.35329 | 5825 ft | 280 kts | 268° |
| 2026-04-25 14:08 | 21.45977 | 39.33256 | 5253 ft | 271 kts | 267° |
| 2026-04-25 14:08 | 21.46008 | 39.31325 | 5081 ft | 246 kts | 267° |
| 2026-04-25 14:08 | 21.46036 | 39.29570 | 4969 ft | 225 kts | 266° |
| 2026-04-25 14:09 | 21.46059 | 39.27963 | 4865 ft | 206 kts | 266° |
| 2026-04-25 14:09 | 21.46078 | 39.26476 | 4781 ft | 195 kts | 265° |
| 2026-04-25 14:09 | 21.46092 | 39.25037 | 4694 ft | 192 kts | 265° |
| 2026-04-25 14:09 | 21.46102 | 39.24089 | 4637 ft | 191 kts | 266° |
| 2026-04-25 14:10 | 21.46652 | 39.22278 | 4509 ft | 202 kts | 309° |
| 2026-04-25 14:10 | 21.47870 | 39.21475 | 4215 ft | 212 kts | 338° |
| 2026-04-25 14:10 | 21.49270 | 39.20943 | 3903 ft | 214 kts | 339° |
| 2026-04-25 14:10 | 21.50675 | 39.20411 | 3550 ft | 215 kts | 338° |
| 2026-04-25 14:11 | 21.52067 | 39.19868 | 3223 ft | 209 kts | 338° |
| 2026-04-25 14:11 | 21.53403 | 39.19343 | 2900 ft | 202 kts | 338° |
| 2026-04-25 14:11 | 21.54724 | 39.18823 | 2501 ft | 198 kts | 338° |
| 2026-04-25 14:11 | 21.55980 | 39.18328 | 2236 ft | 187 kts | 338° |
| 2026-04-25 14:12 | 21.57162 | 39.17863 | 1994 ft | 175 kts | 336° |
| 2026-04-25 14:12 | 21.58267 | 39.17429 | 1770 ft | 164 kts | 335° |
| 2026-04-25 14:12 | 21.59308 | 39.17018 | 1567 ft | 154 kts | 335° |
| 2026-04-25 14:12 | 21.60292 | 39.16630 | 1390 ft | 148 kts | 335° |
| 2026-04-25 14:13 | 21.61248 | 39.16253 | 1194 ft | 145 kts | 336° |
| 2026-04-25 14:13 | 21.62187 | 39.15882 | 998 ft | 144 kts | 335° |
| 2026-04-25 14:13 | 21.63134 | 39.15508 | 841 ft | 145 kts | 336° |
| 2026-04-25 14:13 | 21.64065 | 39.15141 | 663 ft | 139 kts | 334° |
| 2026-04-25 14:14 | 21.64955 | 39.14790 | 490 ft | 135 kts | 331° |
| 2026-04-25 14:14 | 21.65840 | 39.14441 | 328 ft | 134 kts | 332° |
| 2026-04-25 14:14 | 21.66696 | 39.14103 | 141 ft | 130 kts | 332° |
| 2026-04-25 14:14 | 21.67533 | 39.13770 | 52 ft | 127 kts | 334° |
| 2026-04-25 14:15 | 21.68304 | 39.13464 | 27 ft | 103 kts | 339° |
| 2026-04-25 14:15 | 21.68675 | 39.13317 | 25 ft | 69 kts | 340° |
| 2026-04-25 14:15 | 21.69013 | 39.13188 | 23 ft | 16 kts | 349° |
| 2026-04-25 14:15 | 21.69131 | 39.13190 | 23 ft | 14 kts | 10° |
| 2026-04-25 14:16 | 21.69164 | 39.13197 | 23 ft | 2 kts | 13° |
| 2026-04-25 14:16 | 21.69181 | 39.13201 | 23 ft | 3 kts | 13° |
| 2026-04-25 14:16 | 21.69202 | 39.13206 | 23 ft | 4 kts | 13° |
| 2026-04-25 14:16 | 21.69229 | 39.13212 | 23 ft | 0 kts | 11° |
| 2026-04-25 14:17 | 21.69252 | 39.13217 | 25 ft | 3 kts | 12° |
| 2026-04-25 14:17 | 21.69261 | 39.13219 | 23 ft | 0 kts | 12° |
| 2026-04-25 14:18 | 21.69272 | 39.13222 | 23 ft | 6 kts | 12° |
| 2026-04-25 14:18 | 21.69298 | 39.13248 | 23 ft | 3 kts | 59° |
| 2026-04-25 14:18 | 21.69303 | 39.13256 | 23 ft | 1 kts | 56° |
| 2026-04-25 14:18 | 21.69363 | 39.13299 | 26 ft | 16 kts | 53° |
| 2026-04-25 14:19 | 21.69328 | 39.13376 | 24 ft | 13 kts | 158° |
| 2026-04-25 14:19 | 21.69245 | 39.13409 | 24 ft | 12 kts | 163° |
| 2026-04-25 14:19 | 21.69166 | 39.13438 | 25 ft | 12 kts | 160° |
| 2026-04-25 14:19 | 21.69091 | 39.13467 | 24 ft | 11 kts | 160° |
| 2026-04-25 14:20 | 21.69019 | 39.13495 | 24 ft | 11 kts | 160° |
| 2026-04-25 14:20 | 21.68972 | 39.13513 | 24 ft | 11 kts | 160° |
| 2026-04-25 14:20 | 21.68882 | 39.13548 | 24 ft | 10 kts | 160° |
| 2026-04-25 14:20 | 21.68818 | 39.13574 | 24 ft | 10 kts | 159° |
| 2026-04-25 14:21 | 21.68756 | 39.13599 | 24 ft | 9 kts | 159° |
| 2026-04-25 14:21 | 21.68695 | 39.13623 | 24 ft | 9 kts | 159° |
| 2026-04-25 14:21 | 21.68627 | 39.13651 | 23 ft | 13 kts | 160° |
| 2026-04-25 14:21 | 21.68541 | 39.13684 | 25 ft | 13 kts | 160° |
| 2026-04-25 14:22 | 21.68457 | 39.13717 | 23 ft | 13 kts | 160° |
| 2026-04-25 14:22 | 21.68372 | 39.13752 | 23 ft | 13 kts | 158° |
| 2026-04-25 14:22 | 21.68290 | 39.13786 | 25 ft | 12 kts | 159° |
| 2026-04-25 14:22 | 21.68255 | 39.13853 | 24 ft | 11 kts | 79° |
| 2026-04-25 14:23 | 21.68279 | 39.13929 | 24 ft | 10 kts | 69° |
| 2026-04-25 14:23 | 21.68304 | 39.14000 | 25 ft | 10 kts | 69° |
| 2026-04-25 14:23 | 21.68332 | 39.14081 | 26 ft | 17 kts | 70° |
| 2026-04-25 14:23 | 21.68371 | 39.14201 | 26 ft | 17 kts | 70° |
| 2026-04-25 14:24 | 21.68409 | 39.14312 | 27 ft | 15 kts | 69° |
| 2026-04-25 14:24 | 21.68446 | 39.14419 | 28 ft | 15 kts | 69° |
| 2026-04-25 14:24 | 21.68480 | 39.14518 | 29 ft | 14 kts | 70° |
| 2026-04-25 14:24 | 21.68512 | 39.14612 | 30 ft | 13 kts | 69° |
| 2026-04-25 14:25 | 21.68544 | 39.14701 | 30 ft | 13 kts | 69° |
| 2026-04-25 14:25 | 21.68573 | 39.14787 | 29 ft | 12 kts | 69° |
| 2026-04-25 14:25 | 21.68603 | 39.14871 | 29 ft | 12 kts | 69° |
| 2026-04-25 14:25 | 21.68613 | 39.14898 | 31 ft | 12 kts | 69° |
| 2026-04-25 14:26 | 21.68662 | 39.15032 | 31 ft | 11 kts | 69° |
| 2026-04-25 14:26 | 21.68689 | 39.15112 | 31 ft | 11 kts | 70° |
| 2026-04-25 14:26 | 21.68716 | 39.15192 | 31 ft | 11 kts | 71° |
| 2026-04-25 14:26 | 21.68734 | 39.15247 | 29 ft | 7 kts | 70° |
| 2026-04-25 14:27 | 21.68749 | 39.15296 | 30 ft | 7 kts | 71° |
| 2026-04-25 14:27 | 21.68766 | 39.15348 | 30 ft | 8 kts | 71° |
| 2026-04-25 14:27 | 21.68790 | 39.15417 | 30 ft | 11 kts | 69° |
| 2026-04-25 14:27 | 21.68816 | 39.15491 | 31 ft | 10 kts | 69° |
| 2026-04-25 14:28 | 21.68842 | 39.15561 | 31 ft | 10 kts | 69° |
| 2026-04-25 14:28 | 21.68878 | 39.15668 | 30 ft | 18 kts | 70° |
| 2026-04-25 14:28 | 21.68920 | 39.15790 | 32 ft | 17 kts | 69° |
| 2026-04-25 14:28 | 21.68961 | 39.15905 | 33 ft | 16 kts | 69° |
| 2026-04-25 14:29 | 21.68998 | 39.16013 | 34 ft | 15 kts | 69° |
| 2026-04-25 14:29 | 21.69032 | 39.16111 | 35 ft | 13 kts | 69° |
| 2026-04-25 14:29 | 21.69064 | 39.16203 | 37 ft | 13 kts | 70° |
| 2026-04-25 14:29 | 21.69093 | 39.16288 | 36 ft | 11 kts | 70° |
| 2026-04-25 14:30 | 21.69120 | 39.16363 | 38 ft | 10 kts | 69° |
| 2026-04-25 14:30 | 21.69164 | 39.16491 | 41 ft | 8 kts | 70° |
| 2026-04-25 14:30 | 21.69182 | 39.16546 | 40 ft | 7 kts | 70° |
| 2026-04-25 14:31 | 21.69199 | 39.16596 | 42 ft | 7 kts | 69° |
| 2026-04-25 14:31 | 21.69222 | 39.16669 | 41 ft | 13 kts | 83° |
| 2026-04-25 14:31 | 21.69162 | 39.16725 | 43 ft | 12 kts | 161° |
| 2026-04-25 14:31 | 21.69086 | 39.16754 | 41 ft | 11 kts | 160° |
| 2026-04-25 14:32 | 21.69018 | 39.16781 | 44 ft | 10 kts | 159° |
| 2026-04-25 14:32 | 21.68955 | 39.16806 | 44 ft | 9 kts | 159° |
| 2026-04-25 14:32 | 21.68896 | 39.16830 | 43 ft | 9 kts | 160° |
| 2026-04-25 14:32 | 21.68841 | 39.16851 | 45 ft | 8 kts | 160° |
| 2026-04-25 14:33 | 21.68790 | 39.16871 | 45 ft | 8 kts | 160° |
| 2026-04-25 14:33 | 21.68704 | 39.16905 | 45 ft | 17 kts | 159° |
| 2026-04-25 14:33 | 21.68586 | 39.16954 | 46 ft | 19 kts | 159° |
| 2026-04-25 14:33 | 21.68468 | 39.17002 | 47 ft | 18 kts | 160° |
| 2026-04-25 14:34 | 21.68348 | 39.17048 | 47 ft | 17 kts | 160° |
| 2026-04-25 14:34 | 21.68236 | 39.17092 | 48 ft | 18 kts | 160° |
| 2026-04-25 14:34 | 21.68115 | 39.17141 | 49 ft | 19 kts | 158° |
| 2026-04-25 14:34 | 21.67989 | 39.17192 | 49 ft | 20 kts | 162° |
| 2026-04-25 14:35 | 21.67846 | 39.17244 | 50 ft | 18 kts | 160° |
| 2026-04-25 14:35 | 21.67725 | 39.17293 | 51 ft | 20 kts | 159° |
| 2026-04-25 14:35 | 21.67588 | 39.17349 | 52 ft | 23 kts | 159° |
| 2026-04-25 14:35 | 21.67436 | 39.17410 | 52 ft | 17 kts | 160° |
| 2026-04-25 14:36 | 21.67321 | 39.17454 | 52 ft | 18 kts | 161° |
| 2026-04-25 14:36 | 21.67192 | 39.17504 | 53 ft | 21 kts | 159° |
| 2026-04-25 14:36 | 21.67044 | 39.17561 | 54 ft | 24 kts | 161° |
| 2026-04-25 14:36 | 21.66948 | 39.17534 | 54 ft | 17 kts | 248° |
| 2026-04-25 14:37 | 21.66902 | 39.17405 | 52 ft | 13 kts | 248° |
| 2026-04-25 14:37 | 21.66872 | 39.17328 | 51 ft | 9 kts | 247° |
| 2026-04-25 14:37 | 21.66812 | 39.17310 | 48 ft | 11 kts | 156° |
| 2026-04-25 14:37 | 21.66747 | 39.17341 | 51 ft | 10 kts | 157° |
| 2026-04-25 14:38 | 21.66687 | 39.17367 | 50 ft | 9 kts | 159° |
| 2026-04-25 14:38 | 21.66630 | 39.17390 | 52 ft | 8 kts | 164° |
| 2026-04-25 14:38 | 21.66579 | 39.17366 | 51 ft | 10 kts | 227° |
| 2026-04-25 14:38 | 21.66544 | 39.17293 | 49 ft | 0 kts | 246° |